Airfield :
LOGIN :

Register | Disclaimer

   EN    FR    IT 

 










Legend :    VFR   Marginal VFR   IFR   Intensive IFR   Very Intensive IFR
Visi :
Ceiling :
>= 8 km
>= 3000ft
5 to 8 km
1000 to 3000 ft
1500m to 5 km
500 to 1000 ft
800 to 1500m
200 to 500 ft
< 800m
< 200 ft
Symbols :   Thunderstorms  Fog  Heavy snow  Heavy precipitations  Wind > 20 kt
SIGMETs :     Misc.  Thunderstorms  Icing  Turbulence  Mountain Waves  Volcanic Ashes







- Airport Elevation : 433 ft
- Download approach charts


LFOC - Chateaudun

CURRENT METAR :
  • 261230Z AUTO 22013KT 9999 BKN012 OVC022 20/17 Q1013 TEMPO 24015G25KT 3000 RADZ BKN005

EXPIRED METARs :
  • 261200Z AUTO 22012KT 9999 -RADZ BKN010 BKN022 OVC029 19/17 Q1013 TEMPO 24015G25KT 3000 RADZ
  • 261130Z AUTO 22014KT 9999 -DZ FEW017 OVC023 19/16 Q1013 TEMPO 24015G25KT 3000 RADZ BKN005
  • 261100Z AUTO 23012KT 9999 DZ BKN023 BKN038 BKN048 20/15 Q1013 TEMPO 24015G25KT 3000 RADZ BKN005
  • 261030Z AUTO 23012KT 9999 BKN042 BKN052 BKN066 21/14 Q1013 TEMPO 24015G25KT 3000 RADZ BKN005
  • 261000Z AUTO 21012KT CAVOK 22/14 Q1013 TEMPO 24015G25KT 3000 RADZ BKN005

TAF TAF LFOC
Valid from the 26 at 09:00 until the 27 at 09:00 UTC


260800Z 2609/2709 23010KT 9999 OVC006
TEMPO 2609/2611 5000 -DZRA BKN010
TEMPO 2611/2619 24015G25KT 3000 RADZ BKN005
BECMG 2619/2621 NSW SCT010 BKN020
TEMPO 2623/2709 3000 -SHRA BKN008 BKN015TCU
No reported NOTAMs for that airfield.



MET'MAP, your aeronautical weather chart ! - Copyright ORBIFLY December 2007 - Disclaimer

ORBIFLY MET'MAP TEAM :

Programming & Development : Alexandra Zaïnal
Concept & Development : Baudouin d'Aumeries
Co-Development & Prog : Marc-Olivier Méhu
Technical & hardware support : Manuel Goepfert

Contact : metmap@orbifly.com




SOURCES & CREDITS :

   NOAA